createdAt,value
2022-10-08T00:00:44.160Z,0
2022-10-08T00:01:44.139Z,0
2022-10-08T00:02:44.119Z,0
2022-10-08T00:03:44.110Z,0
2022-10-08T00:04:44.091Z,0
2022-10-08T00:05:44.087Z,0
2022-10-08T00:06:44.096Z,0
2022-10-08T00:07:44.077Z,0
2022-10-08T00:08:44.061Z,0
2022-10-08T00:09:44.050Z,0
2022-10-08T00:10:44.063Z,0
2022-10-08T00:11:44.017Z,0
2022-10-08T00:12:44.020Z,0
2022-10-08T00:13:44.002Z,0
2022-10-08T00:14:43.987Z,0
2022-10-08T00:15:44.020Z,0
2022-10-08T00:16:43.971Z,0
2022-10-08T00:17:43.969Z,0
2022-10-08T00:18:43.942Z,0
2022-10-08T00:19:43.953Z,0
2022-10-08T00:20:44.002Z,0
2022-10-08T00:21:43.928Z,0
2022-10-08T00:22:43.968Z,0
2022-10-08T00:23:44.903Z,0
2022-10-08T00:24:43.877Z,0
2022-10-08T00:25:43.865Z,0
2022-10-08T00:26:43.867Z,0
2022-10-08T00:27:43.859Z,0
2022-10-08T00:28:43.846Z,0
2022-10-08T00:29:43.824Z,0
2022-10-08T00:30:43.813Z,0
2022-10-08T00:31:43.855Z,0
2022-10-08T00:32:43.817Z,0
2022-10-08T00:33:43.807Z,0
2022-10-08T00:34:43.808Z,0
2022-10-08T00:35:43.760Z,0
2022-10-08T00:36:43.795Z,0
2022-10-08T00:37:43.759Z,0
2022-10-08T00:38:43.727Z,0
2022-10-08T00:39:43.738Z,0
2022-10-08T00:40:43.734Z,0
2022-10-08T00:41:43.727Z,0
2022-10-08T00:42:43.687Z,0
2022-10-08T00:43:43.690Z,0
2022-10-08T00:44:43.699Z,0
2022-10-08T00:45:43.664Z,0
2022-10-08T00:46:43.646Z,0
2022-10-08T00:47:43.638Z,0
2022-10-08T00:48:43.634Z,0
2022-10-08T00:49:43.625Z,0
2022-10-08T00:50:43.616Z,0
2022-10-08T00:51:43.608Z,0
2022-10-08T00:52:43.602Z,0
2022-10-08T00:53:43.582Z,0
2022-10-08T00:54:43.566Z,0
2022-10-08T00:55:43.560Z,0
2022-10-08T00:56:43.568Z,0
2022-10-08T00:57:43.562Z,0
2022-10-08T00:58:43.562Z,0
2022-10-08T00:59:43.561Z,0
2022-10-08T01:00:43.508Z,0
2022-10-08T01:01:43.487Z,0
2022-10-08T01:02:43.483Z,0
2022-10-08T01:03:43.477Z,0
2022-10-08T01:04:43.466Z,0
2022-10-08T01:05:43.456Z,0
2022-10-08T01:06:43.476Z,0
2022-10-08T01:07:43.441Z,0
2022-10-08T01:08:43.450Z,0
2022-10-08T01:09:43.435Z,0
2022-10-08T01:10:43.400Z,0
2022-10-08T01:11:43.420Z,0
2022-10-08T01:12:43.390Z,0
2022-10-08T01:13:43.371Z,0
2022-10-08T01:14:43.350Z,0
2022-10-08T01:15:43.357Z,0
2022-10-08T01:16:43.362Z,0
2022-10-08T01:17:43.364Z,0
2022-10-08T01:18:43.315Z,0
2022-10-08T01:19:43.305Z,0
2022-10-08T01:20:43.295Z,0
2022-10-08T01:21:43.301Z,0
2022-10-08T01:22:43.302Z,0
2022-10-08T01:23:43.266Z,0
2022-10-08T01:24:43.252Z,0
2022-10-08T01:25:43.237Z,0
2022-10-08T01:26:43.226Z,0
2022-10-08T01:27:43.240Z,0
2022-10-08T01:28:43.212Z,0
2022-10-08T01:29:43.218Z,0
2022-10-08T01:30:43.187Z,0
2022-10-08T01:31:43.201Z,0
2022-10-08T01:32:43.190Z,0
2022-10-08T01:33:43.278Z,0
2022-10-08T01:34:43.245Z,0
2022-10-08T01:35:43.153Z,0
2022-10-08T01:36:43.128Z,0
2022-10-08T01:37:43.173Z,0
2022-10-08T01:38:43.111Z,0
2022-10-08T01:39:44.101Z,0
2022-10-08T01:40:43.101Z,0
2022-10-08T01:41:43.131Z,0
2022-10-08T01:42:43.085Z,0
2022-10-08T01:43:43.087Z,0
2022-10-08T01:44:43.080Z,0
2022-10-08T01:45:43.061Z,0
2022-10-08T01:46:43.053Z,0
2022-10-08T01:47:43.027Z,0
2022-10-08T01:48:43.014Z,0
2022-10-08T01:49:43.039Z,0
2022-10-08T01:50:43.046Z,0
2022-10-08T01:51:43.013Z,0
2022-10-08T01:52:42.985Z,0
2022-10-08T01:53:42.961Z,0
2022-10-08T01:54:43.034Z,0
2022-10-08T01:55:43.052Z,0
2022-10-08T01:56:43.952Z,0
2022-10-08T01:57:42.948Z,0
2022-10-08T01:58:42.904Z,0
2022-10-08T01:59:42.895Z,0
2022-10-08T02:00:42.890Z,0
2022-10-08T02:01:42.902Z,0
2022-10-08T02:02:42.890Z,0
2022-10-08T02:03:42.863Z,0
2022-10-08T02:04:42.881Z,0
2022-10-08T02:05:42.852Z,0
2022-10-08T02:06:42.829Z,0
2022-10-08T02:07:42.814Z,0
2022-10-08T02:08:42.812Z,0
2022-10-08T02:09:42.801Z,0
2022-10-08T02:10:42.792Z,0
2022-10-08T02:11:42.801Z,0
2022-10-08T02:12:42.778Z,0
2022-10-08T02:13:42.815Z,0
2022-10-08T02:14:42.749Z,0
2022-10-08T02:15:42.732Z,0
2022-10-08T02:16:42.727Z,0
2022-10-08T02:17:42.703Z,0
2022-10-08T02:18:42.691Z,0
2022-10-08T02:19:42.673Z,0
2022-10-08T02:20:42.679Z,0
2022-10-08T02:21:42.660Z,0
2022-10-08T02:22:42.641Z,0
2022-10-08T02:23:42.638Z,0
2022-10-08T02:24:42.640Z,0
2022-10-08T02:25:42.675Z,0
2022-10-08T02:26:42.624Z,0
2022-10-08T02:27:42.605Z,0
2022-10-08T02:28:42.653Z,0
2022-10-08T02:29:42.616Z,0
2022-10-08T02:30:42.585Z,0
2022-10-08T02:31:42.552Z,0
2022-10-08T02:32:42.549Z,0
2022-10-08T02:33:42.533Z,0
2022-10-08T02:34:42.516Z,0
2022-10-08T02:35:42.513Z,0
2022-10-08T02:36:42.517Z,0
2022-10-08T02:37:42.492Z,0
2022-10-08T02:38:42.475Z,0
2022-10-08T02:39:42.461Z,0
2022-10-08T02:40:42.455Z,0
2022-10-08T02:41:42.451Z,0
2022-10-08T02:42:42.428Z,0
2022-10-08T02:43:42.440Z,0
2022-10-08T02:44:42.432Z,0
2022-10-08T02:45:42.407Z,0
2022-10-08T02:46:42.415Z,0
2022-10-08T02:47:42.469Z,0
2022-10-08T02:48:42.399Z,0
2022-10-08T02:49:42.415Z,0
2022-10-08T02:50:42.374Z,0
2022-10-08T02:51:42.334Z,0
2022-10-08T02:52:51.060Z,0
2022-10-08T02:53:49.937Z,0
2022-10-08T02:54:43.328Z,0
2022-10-08T02:55:42.300Z,0
2022-10-08T02:56:42.308Z,0
2022-10-08T02:57:42.286Z,0
2022-10-08T02:58:42.280Z,0
2022-10-08T02:59:42.288Z,0
2022-10-08T03:00:42.320Z,0
2022-10-08T03:01:42.241Z,0
2022-10-08T03:02:42.227Z,0
2022-10-08T03:03:42.225Z,0
2022-10-08T03:04:42.237Z,0
2022-10-08T03:05:42.182Z,0
2022-10-08T03:06:42.178Z,0
2022-10-08T03:07:42.186Z,0
2022-10-08T03:08:42.154Z,0
2022-10-08T03:09:42.148Z,0
2022-10-08T03:10:42.144Z,0
2022-10-08T03:11:42.117Z,0
2022-10-08T03:12:42.108Z,0
2022-10-08T03:13:42.098Z,0
2022-10-08T03:14:42.093Z,0
2022-10-08T03:15:42.136Z,0
2022-10-08T03:16:42.079Z,0
2022-10-08T03:17:42.075Z,0
2022-10-08T03:18:42.168Z,0
2022-10-08T03:19:42.064Z,0
2022-10-08T03:20:42.503Z,0
2022-10-08T03:21:42.046Z,0
2022-10-08T03:22:42.026Z,0
2022-10-08T03:23:42.017Z,0
2022-10-08T03:24:42.001Z,0
2022-10-08T03:25:41.976Z,0
2022-10-08T03:26:41.997Z,0
2022-10-08T03:27:41.971Z,0
2022-10-08T03:28:41.947Z,0
2022-10-08T03:29:41.936Z,0
2022-10-08T03:30:41.925Z,0
2022-10-08T03:31:41.941Z,0
2022-10-08T03:32:41.952Z,0
2022-10-08T03:33:41.902Z,0
2022-10-08T03:34:41.886Z,0
2022-10-08T03:35:41.891Z,0
2022-10-08T03:36:41.868Z,0
2022-10-08T03:37:41.892Z,0
2022-10-08T03:38:41.864Z,0
2022-10-08T03:39:41.837Z,0
2022-10-08T03:40:41.815Z,0
2022-10-08T03:41:41.809Z,0
2022-10-08T03:42:41.803Z,0
2022-10-08T03:43:41.785Z,0
2022-10-08T03:44:41.773Z,0
2022-10-08T03:45:41.777Z,0
2022-10-08T03:46:41.769Z,0
2022-10-08T03:47:41.821Z,0
2022-10-08T03:48:41.730Z,0
2022-10-08T03:49:41.730Z,0
2022-10-08T03:50:41.724Z,0
2022-10-08T03:51:41.726Z,0
2022-10-08T03:52:41.688Z,0
2022-10-08T03:53:41.719Z,0
2022-10-08T03:54:41.730Z,0
2022-10-08T03:55:41.669Z,0
2022-10-08T03:56:41.651Z,0
2022-10-08T03:57:41.636Z,0
2022-10-08T03:58:41.626Z,0
2022-10-08T03:59:41.631Z,0
2022-10-08T04:00:41.608Z,0
2022-10-08T04:01:42.608Z,0
2022-10-08T04:02:41.623Z,0
2022-10-08T04:03:41.607Z,0
2022-10-08T04:04:41.582Z,0
2022-10-08T04:05:41.563Z,0
2022-10-08T04:06:41.544Z,0
2022-10-08T04:07:41.542Z,0
2022-10-08T04:08:41.542Z,0
2022-10-08T04:09:41.534Z,0
2022-10-08T04:10:41.518Z,0
2022-10-08T04:11:41.513Z,0
2022-10-08T04:12:41.494Z,0
2022-10-08T04:13:41.487Z,0
2022-10-08T04:14:41.486Z,0
2022-10-08T04:15:41.448Z,0
2022-10-08T04:16:41.456Z,0
2022-10-08T04:17:41.512Z,0
2022-10-08T04:18:41.457Z,0
2022-10-08T04:19:41.465Z,0
2022-10-08T04:20:41.476Z,0
2022-10-08T04:21:41.440Z,0
2022-10-08T04:22:41.416Z,0
2022-10-08T04:23:41.369Z,0
2022-10-08T04:24:41.354Z,0
2022-10-08T04:25:41.358Z,0
2022-10-08T04:26:41.361Z,0
2022-10-08T04:27:41.341Z,0
2022-10-08T04:28:41.353Z,0
2022-10-08T04:29:41.331Z,0
2022-10-08T04:30:41.297Z,0
2022-10-08T04:31:41.293Z,0
2022-10-08T04:32:41.278Z,0
2022-10-08T04:33:41.306Z,0
2022-10-08T04:34:41.265Z,0
2022-10-08T04:35:41.335Z,0
2022-10-08T04:36:41.232Z,0
2022-10-08T04:37:41.230Z,0
2022-10-08T04:38:41.230Z,0
2022-10-08T04:39:41.213Z,0
2022-10-08T04:40:41.196Z,0
2022-10-08T04:41:41.194Z,0
2022-10-08T04:42:41.202Z,0
2022-10-08T04:43:41.171Z,0
2022-10-08T04:44:41.153Z,0
2022-10-08T04:45:41.132Z,0
2022-10-08T04:46:41.117Z,0
2022-10-08T04:47:41.164Z,0
2022-10-08T04:48:42.107Z,0
2022-10-08T04:49:41.128Z,0
2022-10-08T04:50:41.100Z,0
2022-10-08T04:51:41.101Z,0
2022-10-08T04:52:41.061Z,0
2022-10-08T04:53:41.061Z,0
2022-10-08T04:54:41.072Z,0
2022-10-08T04:55:41.040Z,0
2022-10-08T04:56:41.033Z,0
2022-10-08T04:57:41.005Z,0
2022-10-08T04:58:41.024Z,0
2022-10-08T04:59:40.995Z,0
2022-10-08T05:00:40.970Z,0
2022-10-08T05:01:40.976Z,0
2022-10-08T05:02:40.992Z,0
2022-10-08T05:03:40.949Z,0
2022-10-08T05:04:40.957Z,0
2022-10-08T05:05:40.942Z,0
2022-10-08T05:06:40.914Z,0
2022-10-08T05:07:40.906Z,0
2022-10-08T05:08:40.902Z,0
2022-10-08T05:09:40.892Z,0
2022-10-08T05:10:40.881Z,0
2022-10-08T05:11:40.869Z,0
2022-10-08T05:12:40.866Z,0
2022-10-08T05:13:41.833Z,0
2022-10-08T05:14:40.825Z,0
2022-10-08T05:15:49.396Z,0
2022-10-08T05:16:48.361Z,0
2022-10-08T05:17:40.790Z,0
2022-10-08T05:18:40.776Z,0
2022-10-08T05:19:40.772Z,0
2022-10-08T05:20:40.758Z,0
2022-10-08T05:21:40.754Z,0
2022-10-08T05:22:40.738Z,0
2022-10-08T05:23:40.728Z,0
2022-10-08T05:24:40.716Z,0
2022-10-08T05:25:40.705Z,0
2022-10-08T05:26:40.714Z,0
2022-10-08T05:27:40.684Z,0
2022-10-08T05:28:40.675Z,0
2022-10-08T05:29:40.669Z,0
2022-10-08T05:30:40.669Z,0
2022-10-08T05:31:40.641Z,0
2022-10-08T05:32:40.636Z,0
2022-10-08T05:33:40.663Z,0
2022-10-08T05:34:40.611Z,0
2022-10-08T05:35:40.603Z,0
2022-10-08T05:36:40.688Z,0
2022-10-08T05:37:40.576Z,0
2022-10-08T05:38:40.572Z,0
2022-10-08T05:39:40.560Z,0
2022-10-08T05:40:40.581Z,0
2022-10-08T05:41:40.542Z,0
2022-10-08T05:42:40.542Z,0
2022-10-08T05:43:40.522Z,0
2022-10-08T05:44:40.514Z,0
2022-10-08T05:45:40.496Z,0
2022-10-08T05:46:40.488Z,0
2022-10-08T05:47:40.475Z,0
2022-10-08T05:48:49.296Z,0
2022-10-08T05:49:40.454Z,0
2022-10-08T05:50:40.439Z,0
2022-10-08T05:51:40.436Z,0
2022-10-08T05:52:40.425Z,0
2022-10-08T05:53:40.425Z,0
2022-10-08T05:54:40.400Z,0
2022-10-08T05:55:40.388Z,0
2022-10-08T05:56:40.382Z,0
2022-10-08T05:57:40.369Z,0
2022-10-08T05:58:40.362Z,0
2022-10-08T05:59:40.345Z,0
2022-10-08T06:00:40.334Z,0
2022-10-08T06:01:47.949Z,0
2022-10-08T06:02:40.321Z,0
2022-10-08T06:03:40.311Z,0
2022-10-08T06:04:40.297Z,5.62
2022-10-08T06:05:40.298Z,5.62
2022-10-08T06:06:40.276Z,5.62
2022-10-08T06:07:40.267Z,5.62
2022-10-08T06:08:40.255Z,5.62
2022-10-08T06:09:40.245Z,5.62
2022-10-08T06:10:40.230Z,5.62
2022-10-08T06:11:40.224Z,5.62
2022-10-08T06:12:40.224Z,5.62
2022-10-08T06:13:40.209Z,5.62
2022-10-08T06:14:40.188Z,11.25
2022-10-08T06:15:40.202Z,11.25
2022-10-08T06:16:40.169Z,11.25
2022-10-08T06:17:40.159Z,11.25
2022-10-08T06:18:40.154Z,11.25
2022-10-08T06:19:40.147Z,11.25
2022-10-08T06:20:40.128Z,11.25
2022-10-08T06:21:40.113Z,11.25
2022-10-08T06:22:40.107Z,11.25
2022-10-08T06:23:40.097Z,16.88
2022-10-08T06:24:40.091Z,16.88
2022-10-08T06:25:40.074Z,16.88
2022-10-08T06:26:40.059Z,16.88
2022-10-08T06:27:40.054Z,16.88
2022-10-08T06:28:40.047Z,11.25
2022-10-08T06:29:40.027Z,11.25
2022-10-08T06:30:40.030Z,5.62
2022-10-08T06:31:40.014Z,5.62
2022-10-08T06:32:39.996Z,5.62
2022-10-08T06:33:39.989Z,5.62
2022-10-08T06:34:39.978Z,5.62
2022-10-08T06:35:39.990Z,11.25
2022-10-08T06:36:39.954Z,11.25
2022-10-08T06:37:39.949Z,5.62
2022-10-08T06:38:39.948Z,5.62
2022-10-08T06:39:39.921Z,11.25
2022-10-08T06:40:39.917Z,11.25
2022-10-08T06:41:39.905Z,5.62
2022-10-08T06:42:39.898Z,5.62
2022-10-08T06:43:39.967Z,5.62
2022-10-08T06:44:39.902Z,5.62
2022-10-08T06:45:39.869Z,5.62
2022-10-08T06:46:39.860Z,5.62
2022-10-08T06:47:39.854Z,5.62
2022-10-08T06:48:39.855Z,5.62
2022-10-08T06:49:39.826Z,5.62
2022-10-08T06:50:39.815Z,5.62
2022-10-08T06:51:39.797Z,5.62
2022-10-08T06:52:39.794Z,5.62
2022-10-08T06:53:39.785Z,5.62
2022-10-08T06:54:39.788Z,5.62
2022-10-08T06:55:39.760Z,5.62
2022-10-08T06:56:39.769Z,5.62
2022-10-08T06:57:39.739Z,5.62
2022-10-08T06:58:39.728Z,11.25
2022-10-08T06:59:39.720Z,11.25
2022-10-08T07:00:39.703Z,11.25
2022-10-08T07:01:39.701Z,11.25
2022-10-08T07:02:39.687Z,11.25
2022-10-08T07:03:39.673Z,11.25
2022-10-08T07:04:39.662Z,11.25
2022-10-08T07:05:39.663Z,16.88
2022-10-08T07:06:39.642Z,16.88
2022-10-08T07:07:39.648Z,16.88
2022-10-08T07:08:39.628Z,16.88
2022-10-08T07:09:39.620Z,16.88
2022-10-08T07:10:39.603Z,16.88
2022-10-08T07:11:39.591Z,16.88
2022-10-08T07:12:39.579Z,22.5
2022-10-08T07:13:39.571Z,22.5
2022-10-08T07:14:39.561Z,22.5
2022-10-08T07:15:39.549Z,16.88
2022-10-08T07:16:39.543Z,16.88
2022-10-08T07:17:39.534Z,11.25
2022-10-08T07:18:39.515Z,11.25
2022-10-08T07:19:39.503Z,11.25
2022-10-08T07:20:39.496Z,11.25
2022-10-08T07:21:39.485Z,11.25
2022-10-08T07:22:39.523Z,11.25
2022-10-08T07:23:39.467Z,11.25
2022-10-08T07:24:39.458Z,11.25
2022-10-08T07:25:39.439Z,5.62
2022-10-08T07:26:39.430Z,11.25
2022-10-08T07:27:39.420Z,11.25
2022-10-08T07:28:39.409Z,11.25
2022-10-08T07:29:39.403Z,11.25
2022-10-08T07:30:39.391Z,11.25
2022-10-08T07:31:39.390Z,11.25
2022-10-08T07:32:39.368Z,11.25
2022-10-08T07:33:39.364Z,11.25
2022-10-08T07:34:39.347Z,11.25
2022-10-08T07:35:39.342Z,11.25
2022-10-08T07:36:39.333Z,11.25
2022-10-08T07:37:39.328Z,11.25
2022-10-08T07:38:39.304Z,16.88
2022-10-08T07:39:39.288Z,16.88
2022-10-08T07:40:39.300Z,16.88
2022-10-08T07:41:39.293Z,16.88
2022-10-08T07:42:39.286Z,16.88
2022-10-08T07:43:39.250Z,16.88
2022-10-08T07:44:39.238Z,16.88
2022-10-08T07:45:39.226Z,16.88
2022-10-08T07:46:39.225Z,11.25
2022-10-08T07:47:39.209Z,11.25
2022-10-08T07:48:39.205Z,11.25
2022-10-08T07:49:39.186Z,11.25
2022-10-08T07:50:39.179Z,11.25
2022-10-08T07:51:39.172Z,11.25
2022-10-08T07:52:39.156Z,11.25
2022-10-08T07:53:39.148Z,11.25
2022-10-08T07:54:39.142Z,11.25
2022-10-08T07:55:39.127Z,11.25
2022-10-08T07:56:39.211Z,11.25
2022-10-08T07:57:39.108Z,11.25
2022-10-08T07:58:39.091Z,11.25
2022-10-08T07:59:39.081Z,11.25
2022-10-08T08:00:39.073Z,11.25
2022-10-08T08:01:39.060Z,16.88
2022-10-08T08:02:39.054Z,16.88
2022-10-08T08:03:39.040Z,16.88
2022-10-08T08:04:39.034Z,16.88
2022-10-08T08:05:39.017Z,16.88
2022-10-08T08:06:39.006Z,22.5
2022-10-08T08:07:39.022Z,28.12
2022-10-08T08:08:38.998Z,45
2022-10-08T08:09:38.998Z,56.25
2022-10-08T08:10:38.984Z,67.5
2022-10-08T08:11:39.044Z,73.12
2022-10-08T08:12:38.945Z,73.12
2022-10-08T08:13:38.932Z,61.88
2022-10-08T08:14:38.965Z,67.5
2022-10-08T08:15:38.928Z,78.75
2022-10-08T08:16:38.935Z,118.12
2022-10-08T08:17:38.895Z,135
2022-10-08T08:18:38.926Z,84.38
2022-10-08T08:19:38.872Z,90
2022-10-08T08:20:38.857Z,123.75
2022-10-08T08:21:38.850Z,112.5
2022-10-08T08:22:38.899Z,140.62
2022-10-08T08:23:38.840Z,168.75
2022-10-08T08:24:38.818Z,196.88
2022-10-08T08:25:38.810Z,185.62
2022-10-08T08:26:38.802Z,151.88
2022-10-08T08:27:38.788Z,146.25
2022-10-08T08:28:38.772Z,157.5
2022-10-08T08:29:38.770Z,101.25
2022-10-08T08:30:38.750Z,73.12
2022-10-08T08:31:38.744Z,78.75
2022-10-08T08:32:38.758Z,90
2022-10-08T08:33:38.765Z,95.62
2022-10-08T08:34:38.708Z,73.12
2022-10-08T08:35:38.709Z,67.5
2022-10-08T08:36:38.718Z,78.75
2022-10-08T08:37:38.682Z,95.62
2022-10-08T08:38:38.688Z,84.38
2022-10-08T08:39:38.654Z,95.62
2022-10-08T08:40:38.644Z,67.5
2022-10-08T08:41:38.639Z,67.5
2022-10-08T08:42:38.633Z,73.12
2022-10-08T08:43:38.614Z,101.25
2022-10-08T08:44:38.601Z,123.75
2022-10-08T08:45:38.602Z,135
2022-10-08T08:46:38.581Z,106.88
2022-10-08T08:47:38.613Z,112.5
2022-10-08T08:48:38.577Z,95.62
2022-10-08T08:49:38.614Z,101.25
2022-10-08T08:50:38.592Z,129.38
2022-10-08T08:51:38.544Z,163.12
2022-10-08T08:52:38.515Z,123.75
2022-10-08T08:53:38.577Z,101.25
2022-10-08T08:54:38.492Z,101.25
2022-10-08T08:55:38.488Z,73.12
2022-10-08T08:56:38.486Z,61.88
2022-10-08T08:57:38.483Z,45
2022-10-08T08:58:38.465Z,61.88
2022-10-08T08:59:38.441Z,90
2022-10-08T09:00:38.460Z,118.12
2022-10-08T09:01:38.419Z,135
2022-10-08T09:02:38.426Z,157.5
2022-10-08T09:03:38.397Z,191.25
2022-10-08T09:04:38.391Z,163.12
2022-10-08T09:05:38.432Z,157.5
2022-10-08T09:06:38.370Z,213.75
2022-10-08T09:07:38.387Z,196.88
2022-10-08T09:08:38.397Z,185.62
2022-10-08T09:09:38.339Z,168.75
2022-10-08T09:10:38.327Z,157.5
2022-10-08T09:11:38.326Z,146.25
2022-10-08T09:12:38.307Z,185.62
2022-10-08T09:13:38.295Z,180
2022-10-08T09:14:38.285Z,129.38
2022-10-08T09:15:38.272Z,118.12
2022-10-08T09:16:38.265Z,118.12
2022-10-08T09:17:38.269Z,84.38
2022-10-08T09:18:38.243Z,95.62
2022-10-08T09:19:38.236Z,106.88
2022-10-08T09:20:38.290Z,106.88
2022-10-08T09:21:38.214Z,90
2022-10-08T09:22:38.207Z,90
2022-10-08T09:23:38.234Z,106.88
2022-10-08T09:24:38.178Z,129.38
2022-10-08T09:25:38.189Z,163.12
2022-10-08T09:26:38.161Z,219.38
2022-10-08T09:27:38.184Z,236.25
2022-10-08T09:28:38.135Z,146.25
2022-10-08T09:29:38.131Z,185.62
2022-10-08T09:30:38.134Z,185.62
2022-10-08T09:31:38.142Z,196.88
2022-10-08T09:32:38.097Z,146.25
2022-10-08T09:33:38.087Z,135
2022-10-08T09:34:38.079Z,174.38
2022-10-08T09:35:38.090Z,208.12
2022-10-08T09:36:38.060Z,185.62
2022-10-08T09:37:38.057Z,191.25
2022-10-08T09:38:38.036Z,185.62
2022-10-08T09:39:38.025Z,180
2022-10-08T09:40:38.028Z,202.5
2022-10-08T09:41:38.011Z,225
2022-10-08T09:42:38.048Z,275.62
2022-10-08T09:43:37.995Z,247.5
2022-10-08T09:44:37.980Z,264.38
2022-10-08T09:45:38.075Z,292.5
2022-10-08T09:46:37.972Z,230.62
2022-10-08T09:47:37.973Z,157.5
2022-10-08T09:48:37.948Z,174.38
2022-10-08T09:49:37.957Z,213.75
2022-10-08T09:50:37.914Z,219.38
2022-10-08T09:51:37.916Z,168.75
2022-10-08T09:52:37.896Z,208.12
2022-10-08T09:53:37.924Z,151.88
2022-10-08T09:54:37.875Z,191.25
2022-10-08T09:55:37.861Z,225
2022-10-08T09:56:37.852Z,174.38
2022-10-08T09:57:37.839Z,270
2022-10-08T09:58:37.857Z,219.38
2022-10-08T09:59:37.829Z,230.62
2022-10-08T10:00:37.802Z,270
2022-10-08T10:01:37.836Z,196.88
2022-10-08T10:02:37.789Z,185.62
2022-10-08T10:03:37.770Z,286.88
2022-10-08T10:04:37.797Z,168.75
2022-10-08T10:05:37.752Z,219.38
2022-10-08T10:06:37.739Z,219.38
2022-10-08T10:07:37.740Z,185.62
2022-10-08T10:08:38.508Z,241.88
2022-10-08T10:09:37.706Z,225
2022-10-08T10:10:37.705Z,236.25
2022-10-08T10:11:37.689Z,230.62
2022-10-08T10:12:37.673Z,213.75
2022-10-08T10:13:37.662Z,213.75
2022-10-08T10:14:37.655Z,213.75
2022-10-08T10:15:37.645Z,247.5
2022-10-08T10:16:37.631Z,225
2022-10-08T10:17:37.694Z,241.88
2022-10-08T10:18:37.607Z,270
2022-10-08T10:19:37.600Z,281.25
2022-10-08T10:20:37.606Z,275.62
2022-10-08T10:21:37.583Z,253.12
2022-10-08T10:22:37.574Z,230.62
2022-10-08T10:23:37.561Z,225
2022-10-08T10:24:37.545Z,258.75
2022-10-08T10:25:37.538Z,180
2022-10-08T10:26:37.542Z,163.12
2022-10-08T10:27:37.514Z,151.88
2022-10-08T10:28:37.515Z,151.88
2022-10-08T10:29:37.558Z,157.5
2022-10-08T10:30:37.488Z,174.38
2022-10-08T10:31:37.467Z,174.38
2022-10-08T10:32:37.463Z,208.12
2022-10-08T10:33:37.528Z,208.12
2022-10-08T10:34:37.438Z,180
2022-10-08T10:35:37.424Z,168.75
2022-10-08T10:36:37.429Z,146.25
2022-10-08T10:37:37.410Z,129.38
2022-10-08T10:38:37.393Z,106.88
2022-10-08T10:39:37.389Z,106.88
2022-10-08T10:40:37.374Z,112.5
2022-10-08T10:41:37.365Z,118.12
2022-10-08T10:42:37.370Z,118.12
2022-10-08T10:43:37.339Z,112.5
2022-10-08T10:44:37.975Z,123.75
2022-10-08T10:45:37.313Z,146.25
2022-10-08T10:46:37.324Z,157.5
2022-10-08T10:47:37.339Z,185.62
2022-10-08T10:48:37.285Z,270
2022-10-08T10:49:37.274Z,168.75
2022-10-08T10:50:37.262Z,151.88
2022-10-08T10:51:37.266Z,163.12
2022-10-08T10:52:37.247Z,196.88
2022-10-08T10:53:37.231Z,213.75
2022-10-08T10:54:37.217Z,1766.25
2022-10-08T10:55:37.205Z,185.62
2022-10-08T10:56:37.197Z,140.62
2022-10-08T10:57:37.199Z,146.25
2022-10-08T10:58:37.269Z,140.62
2022-10-08T10:59:37.166Z,140.62
2022-10-08T11:00:37.151Z,1040.62
2022-10-08T11:01:37.143Z,219.38
2022-10-08T11:02:37.129Z,202.5
2022-10-08T11:03:37.129Z,151.88
2022-10-08T11:04:37.120Z,129.38
2022-10-08T11:05:37.093Z,101.25
2022-10-08T11:06:37.158Z,95.62
2022-10-08T11:07:38.103Z,95.62
2022-10-08T11:08:37.084Z,112.5
2022-10-08T11:09:37.072Z,191.25
2022-10-08T11:10:37.043Z,2013.75
2022-10-08T11:11:37.036Z,2013.75
2022-10-08T11:12:37.017Z,1850.62
2022-10-08T11:13:37.040Z,1839.38
2022-10-08T11:14:37.025Z,2019.38
2022-10-08T11:15:36.999Z,247.5
2022-10-08T11:16:36.976Z,258.75
2022-10-08T11:17:36.983Z,1485
2022-10-08T11:18:36.956Z,348.75
2022-10-08T11:19:36.945Z,1243.12
2022-10-08T11:20:36.941Z,298.12
2022-10-08T11:21:36.932Z,95.62
2022-10-08T11:22:36.918Z,84.38
2022-10-08T11:23:36.911Z,84.38
2022-10-08T11:24:36.893Z,118.12
2022-10-08T11:25:36.909Z,101.25
2022-10-08T11:26:36.873Z,78.75
2022-10-08T11:27:36.864Z,67.5
2022-10-08T11:28:36.848Z,67.5
2022-10-08T11:29:36.845Z,73.12
2022-10-08T11:30:36.833Z,73.12
2022-10-08T11:31:36.817Z,73.12
2022-10-08T11:32:36.809Z,78.75
2022-10-08T11:33:36.796Z,95.62
2022-10-08T11:34:36.785Z,112.5
2022-10-08T11:35:36.775Z,129.38
2022-10-08T11:36:36.790Z,118.12
2022-10-08T11:37:36.766Z,106.88
2022-10-08T11:38:36.743Z,112.5
2022-10-08T11:39:36.731Z,2227.5
2022-10-08T11:40:36.726Z,2160
2022-10-08T11:41:36.711Z,2103.75
2022-10-08T11:42:36.720Z,2064.38
2022-10-08T11:43:36.694Z,1974.38
2022-10-08T11:44:36.683Z,1991.25
2022-10-08T11:45:36.678Z,2053.12
2022-10-08T11:46:36.672Z,2120.62
2022-10-08T11:47:36.651Z,2171.25
2022-10-08T11:48:36.639Z,2143.12
2022-10-08T11:49:36.637Z,1946.25
2022-10-08T11:50:36.637Z,101.25
2022-10-08T11:51:36.621Z,90
2022-10-08T11:52:36.599Z,118.12
2022-10-08T11:53:36.587Z,106.88
2022-10-08T11:54:36.582Z,73.12
2022-10-08T11:55:36.583Z,61.88
2022-10-08T11:56:36.562Z,73.12
2022-10-08T11:57:36.561Z,90
2022-10-08T11:58:36.536Z,78.75
2022-10-08T11:59:36.525Z,78.75
2022-10-08T12:00:36.510Z,84.38
2022-10-08T12:01:36.502Z,78.75
2022-10-08T12:02:36.494Z,73.12
2022-10-08T12:03:36.482Z,73.12
2022-10-08T12:04:36.471Z,67.5
2022-10-08T12:05:36.458Z,73.12
2022-10-08T12:06:36.496Z,78.75
2022-10-08T12:07:36.436Z,78.75
2022-10-08T12:08:36.429Z,78.75
2022-10-08T12:09:36.418Z,78.75
2022-10-08T12:10:36.410Z,84.38
2022-10-08T12:11:36.400Z,78.75
2022-10-08T12:12:36.388Z,78.75
2022-10-08T12:13:36.374Z,101.25
2022-10-08T12:14:36.361Z,135
2022-10-08T12:15:36.350Z,101.25
2022-10-08T12:16:36.342Z,90
2022-10-08T12:17:36.364Z,78.75
2022-10-08T12:18:36.326Z,78.75
2022-10-08T12:19:36.312Z,95.62
2022-10-08T12:20:36.302Z,168.75
2022-10-08T12:21:36.291Z,118.12
2022-10-08T12:22:36.276Z,101.25
2022-10-08T12:23:36.268Z,90
2022-10-08T12:24:36.263Z,84.38
2022-10-08T12:25:36.244Z,118.12
2022-10-08T12:26:36.235Z,129.38
2022-10-08T12:27:36.240Z,118.12
2022-10-08T12:28:36.213Z,112.5
2022-10-08T12:29:36.222Z,2154.38
2022-10-08T12:30:36.208Z,1085.62
2022-10-08T12:31:36.212Z,2019.38
2022-10-08T12:32:36.177Z,1946.25
2022-10-08T12:33:36.175Z,1890
2022-10-08T12:34:36.179Z,1310.62
2022-10-08T12:35:36.232Z,388.12
2022-10-08T12:36:36.131Z,191.25
2022-10-08T12:37:36.127Z,185.62
2022-10-08T12:38:36.112Z,180
2022-10-08T12:39:36.101Z,180
2022-10-08T12:40:36.093Z,174.38
2022-10-08T12:41:36.084Z,180
2022-10-08T12:42:36.078Z,180
2022-10-08T12:43:36.059Z,180
2022-10-08T12:44:36.049Z,185.62
2022-10-08T12:45:36.039Z,196.88
2022-10-08T12:46:36.041Z,213.75
2022-10-08T12:47:36.016Z,208.12
2022-10-08T12:48:36.007Z,196.88
2022-10-08T12:49:36.007Z,196.88
2022-10-08T12:50:35.987Z,230.62
2022-10-08T12:51:35.972Z,163.12
2022-10-08T12:52:35.964Z,146.25
2022-10-08T12:53:35.957Z,118.12
2022-10-08T12:54:35.940Z,135
2022-10-08T12:55:35.931Z,112.5
2022-10-08T12:56:35.925Z,90
2022-10-08T12:57:35.948Z,73.12
2022-10-08T12:58:35.896Z,61.88
2022-10-08T12:59:35.897Z,67.5
2022-10-08T13:00:35.883Z,67.5
2022-10-08T13:01:35.874Z,78.75
2022-10-08T13:02:35.877Z,90
2022-10-08T13:03:35.851Z,151.88
2022-10-08T13:04:35.834Z,168.75
2022-10-08T13:05:35.823Z,180
2022-10-08T13:06:35.858Z,168.75
2022-10-08T13:07:35.840Z,163.12
2022-10-08T13:08:35.817Z,174.38
2022-10-08T13:09:35.788Z,157.5
2022-10-08T13:10:35.774Z,168.75
2022-10-08T13:11:35.773Z,151.88
2022-10-08T13:12:35.752Z,146.25
2022-10-08T13:13:35.738Z,157.5
2022-10-08T13:14:35.734Z,157.5
2022-10-08T13:15:35.722Z,146.25
2022-10-08T13:16:35.740Z,146.25
2022-10-08T13:17:35.700Z,151.88
2022-10-08T13:18:35.708Z,146.25
2022-10-08T13:19:35.727Z,140.62
2022-10-08T13:20:35.682Z,140.62
2022-10-08T13:21:35.659Z,129.38
2022-10-08T13:22:35.645Z,129.38
2022-10-08T13:23:35.647Z,129.38
2022-10-08T13:24:35.631Z,129.38
2022-10-08T13:25:35.619Z,129.38
2022-10-08T13:26:35.613Z,123.75
2022-10-08T13:27:35.595Z,129.38
2022-10-08T13:28:35.584Z,123.75
2022-10-08T13:29:35.577Z,123.75
2022-10-08T13:30:35.562Z,129.38
2022-10-08T13:31:35.555Z,135
2022-10-08T13:32:35.545Z,140.62
2022-10-08T13:33:35.532Z,146.25
2022-10-08T13:34:35.527Z,146.25
2022-10-08T13:35:35.509Z,151.88
2022-10-08T13:36:35.500Z,151.88
2022-10-08T13:37:35.487Z,157.5